Flight Track Log - Related Links

Times and Time Zones

All times are in EDT time to prevent confusion due to time zone crossing. See the KFS724 flight status page for this flight to view local times or setup timezone preferences in your user account.

Time Position Orientation Groundspeed Altitude Reporting Facility
EDT Latitude Longitude Course Direction KTS MPH feet Rate Location/Type
Fri 07:26:37 AM 38.8214 -97.6408 90° East 143 165 2,700  Level Kansas City Center
Fri 07:27:36 AM 38.8439 -97.5642 69° East 225 259 4,300 2,281 Climbing Kansas City Center
Fri 07:28:38 AM 38.8697 -97.4803 68° East 259 298 7,300 2,780 Climbing Kansas City Center
Fri 07:29:39 AM 38.8994 -97.3861 68° East 272 313 10,000 2,033 Climbing Kansas City Center
Fri 07:30:39 AM 38.9342 -97.2764 68° East 320 368 11,400 1,366 Climbing Kansas City Center
Fri 07:31:42 AM 38.9714 -97.1567 68° East 367 422 12,800 1,984 Climbing Kansas City Center
Fri 07:32:00 AM 39.0333 -96.7274 90° East  Level FlightAware Approximate
Fri 07:32:43 AM 39.0125 -97.0247 68° East 389 448 15,500  Level Kansas City Center
Fri 07:33:41 AM 39.0336 -96.8961 78° East 397 457 17,700 1,785 Climbing Kansas City Center
Fri 07:34:44 AM 39.0186 -96.7567 98° East 413 475 19,100 1,248 Climbing Kansas City Center
Fri 07:35:46 AM 39.0114 -96.5811 93° East 444 511 20,300 1,377 Climbing Kansas City Center
Fri 07:36:46 AM 39.0236 -96.4303 84° East 446 513 21,900 1,537 Climbing Kansas City Center
Fri 07:37:47 AM 39.0611 -96.2853 72° East 448 516 23,400 1,361 Climbing Kansas City Center
Fri 07:38:45 AM 39.1164 -96.1186 67° East 456 525 24,600 1,180 Climbing Kansas City Center
Fri 07:39:49 AM 39.1636 -95.9700 68° East 466 536 25,800 1,082 Climbing Kansas City Center
Fri 07:40:47 AM 39.2117 -95.8192 68° East 476 548 26,800 893 Climbing Kansas City Center
Fri 07:41:50 AM 39.2689 -95.6372 68° East 488 562 27,600 823 Climbing Kansas City Center
Fri 07:42:51 AM 39.3183 -95.4792 68° East 491 565 28,500 950 Climbing Kansas City Center
Fri 07:43:50 AM 39.3731 -95.3028 68° East 490 564 29,500 900 Climbing Kansas City Center
Fri 07:44:51 AM 39.4253 -95.1372 68° East 497 572 30,300 677 Climbing Kansas City Center
Fri 07:45:54 AM 39.4767 -94.9733 68° East 495 570 30,900 496 Climbing Kansas City Center
Fri 07:46:52 AM 39.5250 -94.8136 69° East 497 572 31,300 446 Climbing Kansas City Center
Fri 07:47:55 AM 39.5753 -94.6533 68° East 500 575 31,800 439 Climbing Kansas City Center
Fri 07:48:55 AM 39.6325 -94.4642 69° East 503 579 32,200 454 Climbing Kansas City Center
Fri 07:49:54 AM 39.6817 -94.3017 68° East 505 581 32,700 390 Climbing Kansas City Center
Fri 07:50:58 AM 39.7311 -94.1400 68° East 504 580 33,000 143 Climbing Kansas City Center
Fri 07:52:00 AM 39.7878 -93.9478 69° East 509 586 33,000  Level Kansas City Center
Fri 07:52:57 AM 39.8311 -93.7944 70° East 524 603 33,000  Level Kansas City Center
Fri 07:54:00 AM 39.8947 -93.5858 68° East 523 602 33,000  Level Kansas City Center
Fri 07:55:01 AM 39.9450 -93.4081 70° East 529 609 33,000  Level Kansas City Center
Fri 07:56:02 AM 39.9969 -93.2308 69° East 529 609 33,000  Level Kansas City Center
Fri 07:57:01 AM 40.0489 -93.0514 69° East 535 616 33,000  Level Kansas City Center
Fri 07:58:03 AM 40.1025 -92.8661 69° East 528 608 33,000  Level Kansas City Center
Fri 07:59:03 AM 40.1508 -92.6914 70° East 536 617 33,000  Level Kansas City Center
Fri 08:00:03 AM 40.2072 -92.4900 70° East 530 610 33,000  Level Kansas City Center
Fri 08:01:04 AM 40.2594 -92.3086 69° East 533 613 33,000  Level Kansas City Center
Fri 08:02:07 AM 40.3094 -92.1269 70° East 537 618 33,000  Level Kansas City Center
Fri 08:03:08 AM 40.3597 -91.9436 70° East 538 619 33,000  Level Kansas City Center
Fri 08:04:10 AM 40.4089 -91.7603 71° East 538 619 33,000  Level Kansas City Center
Fri 08:05:08 AM 40.4586 -91.5767 70° East 539 620 33,000  Level Kansas City Center
Fri 08:06:10 AM 40.5094 -91.3914 70° East 541 623 33,000  Level Kansas City Center
Fri 08:07:15 AM 40.5647 -91.1900 70° East 543 625 33,000  Level Chicago Center
Fri 08:08:16 AM 40.6142 -91.0042 71° East 541 623 33,000  Level Chicago Center
Fri 08:09:18 AM 40.6728 -90.7803 71° East 540 621 33,000  Level Chicago Center
Fri 08:10:20 AM 40.7225 -90.5936 71° East 539 620 33,000  Level Chicago Center
Fri 08:11:21 AM 40.7703 -90.4050 71° East 540 621 33,000  Level Chicago Center
Fri 08:12:23 AM 40.8211 -90.2083 71° East 542 624 33,000  Level Chicago Center
Fri 08:13:25 AM 40.8700 -90.0208 71° East 543 625 33,000  Level Chicago Center
Fri 08:14:27 AM 40.9142 -89.8328 73° East 540 621 33,000  Level Chicago Center
Fri 08:15:28 AM 40.9625 -89.6444 71° East 541 623 33,000  Level Chicago Center
Fri 08:16:30 AM 41.0125 -89.4475 71° East 542 624 33,000  Level Chicago Center
Fri 08:17:32 AM 41.0611 -89.2572 71° East 543 625 33,000  Level Chicago Center
Fri 08:18:34 AM 41.1136 -89.0403 72° East 541 623 33,000  Level Chicago Center
Fri 08:19:36 AM 41.1594 -88.8511 72° East 542 624 33,000  Level Chicago Center
Fri 08:20:37 AM 41.2047 -88.6589 73° East 546 628 33,000  Level Chicago Center
Fri 08:21:39 AM 41.2508 -88.4672 72° East 549 632 33,000  Level Chicago Center
Fri 08:22:41 AM 41.2964 -88.2744 72° East 550 633 33,000  Level Chicago Center
Fri 08:23:43 AM 41.3489 -88.0625 72° East 557 641 33,000  Level Chicago Center
Fri 08:24:45 AM 41.3911 -87.8617 74° East 551 634 33,000  Level Chicago Center
Fri 08:25:47 AM 41.4367 -87.6725 72° East 544 626 33,000  Level Chicago Center
Fri 08:26:49 AM 41.4892 -87.4403 73° East 547 629 33,000  Level Chicago Center
Fri 08:27:51 AM 41.5336 -87.2456 73° East 549 632 33,000  Level Chicago Center
Fri 08:28:52 AM 41.5772 -87.0514 73° East 547 629 33,000  Level Chicago Center
Fri 08:29:54 AM 41.6197 -86.8575 74° East 545 627 33,000 -145 Level Chicago Center
Fri 08:30:56 AM 41.6653 -86.6506 74° East 543 625 32,700 -677 Descending Chicago Center
Fri 08:31:58 AM 41.7014 -86.4550 76° East 534 615 31,600 -1,694 Descending Chicago Center
Fri 08:33:00 AM 41.7217 -86.2686 82° East 509 586 29,200 -2,758 Descending Chicago Center
Fri 08:34:02 AM 41.7333 -86.0686 85° East 534 615 25,900 -2,177 Descending Chicago Center
Fri 08:35:04 AM 41.7533 -85.8631 83° East 557 641 24,700 -1,707 Descending Chicago Center
Fri 08:36:05 AM 41.8164 -85.6753 66° East 543 625 22,400 -2,780 Descending Chicago Center
Fri 08:37:07 AM 41.8667 -85.4878 70° East 525 604 19,000 -2,516 Descending Chicago Center
Fri 08:38:09 AM 41.9281 -85.2672 69° East 520 598 17,200 -919 Descending Chicago Center
Fri 08:39:11 AM 41.9739 -85.0944 70° East 491 565 17,100 -48 Descending Chicago Center
Fri 08:40:13 AM 42.0206 -84.9206 70° East 474 545 17,100  Level Chicago Center
Fri 08:41:15 AM 42.0581 -84.7622 72° East 454 522 17,100 -1,645 Level Chicago Center
Fri 08:42:17 AM 42.0389 -84.6197 100° East 392 451 13,700 -3,371 Descending Chicago Center
Fri 08:42:44 AM 42.0278 -84.5414 101° East 402 463 12,100 -2,625 Descending FAA TRACON SMA TRACON (SMA)
Fri 08:43:05 AM 42.0219 -84.4969 100° East 395 455 11,600 -1,200 Descending FAA TRACON SMA TRACON (SMA)
Fri 08:43:24 AM 42.0161 -84.4561 101° East 369 425 11,300 -769 Descending FAA TRACON SMA TRACON (SMA)
Fri 08:43:44 AM 42.0089 -84.4081 101° East 332 382 11,100 -450 Descending FAA TRACON SMA TRACON (SMA)
Fri 08:44:04 AM 42.0025 -84.3700 103° East 339 390 11,000 -900 Descending FAA TRACON SMA TRACON (SMA)
Fri 08:44:24 AM 41.9981 -84.3347 100° East 317 365 10,500 -1,050 Descending FAA TRACON SMA TRACON (SMA)
Fri 08:44:44 AM 41.9931 -84.2939 99° East 279 321 10,300 -750 Descending FAA TRACON SMA TRACON (SMA)
Fri 08:45:04 AM 41.9883 -84.2636 102° East 259 298 10,000 -439 Descending FAA TRACON SMA TRACON (SMA)
Fri 08:45:25 AM 41.9822 -84.2322 105° East 279 321 10,000  Level FAA TRACON SMA TRACON (SMA)
Fri 08:45:44 AM 41.9761 -84.1950 102° East 270 311 10,000  Level FAA TRACON SMA TRACON (SMA)
Fri 08:46:04 AM 41.9711 -84.1650 103° East 269 310 10,000 -162 Level FAA TRACON SMA TRACON (SMA)
Fri 08:46:21 AM 41.9697 -84.1331 93° East 286 329 9,900 -649 Descending Cleveland Center
Fri 08:47:18 AM 42.0467 -84.0703 31° Northeast 332 382 9,200 -1,220 Descending Cleveland Center
Fri 08:48:19 AM 42.1175 -83.9986 37° Northeast 330 380 7,500 -1,672 Descending Cleveland Center
Fri 08:49:20 AM 42.1747 -83.8978 53° Northeast 303 349 5,800 -1,426 Descending Cleveland Center
Fri 08:50:21 AM 42.2253 -83.8053 54° Northeast 310 357 4,600 -1,190 Descending Cleveland Center
Fri 08:51:21 AM 42.2736 -83.7150 54° Northeast 304 350 3,400 -738 Descending Cleveland Center
Fri 08:52:23 AM 42.3258 -83.6417 46° Northeast 260 299 3,100 -217 Descending Cleveland Center
Fri 08:52:44 AM 42.3419 -83.6100 55° Northeast 255 293 3,100  Level FAA TRACON SMA TRACON (SMA)
Fri 08:53:05 AM 42.3547 -83.5878 52° Northeast 251 289 3,100  Level FAA TRACON SMA TRACON (SMA)
Fri 08:53:25 AM 42.3669 -83.5675 51° Northeast 228 262 3,100  Level FAA TRACON SMA TRACON (SMA)
Fri 08:53:44 AM 42.3814 -83.5467 47° Northeast 215 247 3,100 -154 Level FAA TRACON SMA TRACON (SMA)
Fri 08:54:04 AM 42.3925 -83.5233 57° Northeast 220 253 3,000 -439 Descending FAA TRACON SMA TRACON (SMA)
Fri 08:54:25 AM 42.3944 -83.4922 85° East 206 237 2,800 -585 Descending FAA TRACON SMA TRACON (SMA)
Fri 08:54:45 AM 42.3950 -83.4667 88° East 217 250 2,600 -450 Descending FAA TRACON SMA TRACON (SMA)
Fri 08:55:05 AM 42.3972 -83.4428 83° East 198 228 2,500 -146 Descending FAA TRACON SMA TRACON (SMA)
Fri 08:55:26 AM 42.3906 -83.4150 108° East 213 245 2,500  Level FAA TRACON SMA TRACON (SMA)
Fri 08:55:46 AM 42.3800 -83.3983 131° Southeast 197 227 2,500  Level FAA TRACON SMA TRACON (SMA)
Fri 08:56:05 AM 42.3658 -83.3911 159° South 181 208 2,500  Level FAA TRACON SMA TRACON (SMA)
Fri 08:56:25 AM 42.3522 -83.3931 186° South 163 188 2,500 -150 Level FAA TRACON SMA TRACON (SMA)
Fri 08:56:45 AM 42.3342 -83.3953 185° South 166 191 2,400 -154 Descending FAA TRACON SMA TRACON (SMA)
Fri 08:57:04 AM 42.3231 -83.4061 216° Southwest 157 181 2,400 154 Level FAA TRACON SMA TRACON (SMA)
Fri 08:57:24 AM 42.3150 -83.4183 228° Southwest 145 167 2,500 -146 Climbing FAA TRACON SMA TRACON (SMA)
Fri 08:57:45 AM 42.3050 -83.4333 228° Southwest 139 160 2,300 -150 Descending FAA TRACON SMA TRACON (SMA)
Fri 08:58:04 AM 42.2972 -83.4453 229° Southwest 136 157 2,400 316 Climbing FAA TRACON SMA TRACON (SMA)

Login

Don't have an account? Register now (free) for customized features, flight alerts, and more!